Time;durP1;ratioP1;P1;durP2;ratioP2;P2;SDS_P1;SDS_P2;PMS_P1;PMS_P2;Temp;Humidity;BMP_temperature;BMP_pressure;BME280_temperature;BME280_humidity;BME280_pressure;Samples;Min_cycle;Max_cycle;Signal;HPM_P1;HPM_P2
2020/12/04 00:01:39;;;;;;;48.87;17.17;;;;;;;12.79;60.32;154477.16;1761870;81;21339;-66
2020/12/04 00:04:12;;;;;;;47.58;15.93;;;;;;;12.79;60.36;154475.86;1775333;81;21150;-66
2020/12/04 00:06:44;;;;;;;51.08;15.93;;;;;;;12.71;60.46;154456.16;1774958;81;21179;-66
2020/12/04 00:09:17;;;;;;;44.80;14.85;;;;;;;12.73;60.55;154461.41;1774823;81;21139;-66
2020/12/04 00:11:50;;;;;;;43.58;14.43;;;;;;;12.72;60.65;154457.48;1775294;81;21174;-66
2020/12/04 00:14:22;;;;;;;49.75;15.80;;;;;;;12.64;60.62;154436.44;1775368;81;21226;-66
2020/12/04 00:16:55;;;;;;;46.68;16.20;;;;;;;12.60;60.80;154427.27;1769455;81;21154;-66
2020/12/04 00:19:27;;;;;;;46.73;15.32;;;;;;;12.60;60.87;154425.97;1764357;81;21162;-65
2020/12/04 00:22:00;;;;;;;41.53;14.63;;;;;;;12.60;61.06;154425.97;1774786;81;21205;-66
2020/12/04 00:24:32;;;;;;;44.20;15.25;;;;;;;12.60;61.25;154427.27;1775698;81;21300;-65
2020/12/04 00:27:05;;;;;;;51.68;18.42;;;;;;;12.64;61.14;154437.78;1775586;81;21167;-66
2020/12/04 00:29:37;;;;;;;45.10;16.02;;;;;;;12.59;60.85;154424.63;1774108;81;21654;-66
2020/12/04 00:32:09;;;;;;;41.02;14.55;;;;;;;12.63;61.00;154433.81;1771418;81;21197;-66
2020/12/04 00:34:43;;;;;;;39.88;14.70;;;;;;;12.54;61.27;154408.91;1775651;81;21308;-66
2020/12/04 00:37:16;;;;;;;44.80;14.53;;;;;;;12.49;61.11;154397.08;1751963;81;21158;-66
2020/12/04 00:39:48;;;;;;;44.15;14.87;;;;;;;12.62;61.05;154431.19;1775596;81;21162;-66
2020/12/04 00:42:20;;;;;;;41.55;15.03;;;;;;;12.58;61.10;154422.00;1775509;81;21166;-65
2020/12/04 00:44:53;;;;;;;46.60;16.32;;;;;;;12.56;61.05;154414.16;1767534;81;21178;-66
2020/12/04 00:47:25;;;;;;;47.15;16.07;;;;;;;12.57;61.31;154418.08;1778706;80;21203;-66
2020/12/04 00:49:57;;;;;;;33.83;13.38;;;;;;;12.52;61.02;154403.64;1771250;80;21149;-66
2020/12/04 00:52:31;;;;;;;46.40;15.48;;;;;;;12.50;62.03;154398.38;1782855;80;21345;-66
2020/12/04 00:55:04;;;;;;;45.83;15.95;;;;;;;12.41;61.31;154374.75;1783408;80;21149;-66
2020/12/04 00:57:37;;;;;;;38.70;14.45;;;;;;;12.44;61.41;154383.94;1783280;80;21347;-66
2020/12/04 01:00:09;;;;;;;47.03;15.93;;;;;;;12.49;61.47;154395.75;1783224;80;21149;-66
2020/12/04 01:02:42;;;;;;;47.13;14.95;;;;;;;12.50;61.61;154398.38;1782951;80;21196;-66
2020/12/04 01:05:15;;;;;;;41.85;14.70;;;;;;;12.46;61.65;154389.19;1776898;80;21318;-66
2020/12/04 01:07:47;;;;;;;43.83;14.98;;;;;;;12.52;61.42;154404.92;1752098;82;21211;-66
2020/12/04 01:10:19;;;;;;;42.65;14.23;;;;;;;12.54;61.65;154410.19;1776807;80;21664;-66
2020/12/04 01:12:52;;;;;;;39.05;15.03;;;;;;;12.67;61.29;154445.63;1783148;80;21334;-66
2020/12/04 01:15:24;;;;;;;46.80;16.15;;;;;;;12.75;61.33;154465.34;1737042;82;21362;-66
2020/12/04 01:17:56;;;;;;;40.88;14.78;;;;;;;12.91;61.02;154507.44;1778914;80;21307;-66
2020/12/04 01:20:28;;;;;;;40.60;14.18;;;;;;;12.85;61.05;154491.59;1783310;80;21299;-66
2020/12/04 01:23:01;;;;;;;41.50;14.28;;;;;;;12.82;61.07;154485.05;1782757;80;21240;-66
2020/12/04 01:25:33;;;;;;;44.90;16.48;;;;;;;12.92;60.93;154510.06;1767008;80;21237;-66
2020/12/04 01:28:05;;;;;;;39.92;13.50;;;;;;;12.88;60.93;154500.83;1782749;80;21224;-66
2020/12/04 01:30:37;;;;;;;47.13;14.25;;;;;;;12.86;60.78;154494.22;1783208;80;21311;-66
2020/12/04 01:33:09;;;;;;;40.98;14.25;;;;;;;12.78;61.05;154473.23;1783082;80;21479;-66
2020/12/04 01:35:43;;;;;;;42.88;14.30;;;;;;;12.80;60.99;154478.50;1781434;80;21185;-66
2020/12/04 01:38:15;;;;;;;45.85;15.60;;;;;;;12.74;61.15;154462.70;1773180;80;21723;-66
2020/12/04 01:40:47;;;;;;;36.38;13.15;;;;;;;12.76;60.80;154469.31;1782509;80;21418;-66
2020/12/04 01:43:19;;;;;;;43.30;15.38;;;;;;;12.82;60.94;154483.75;1783012;80;21330;-66
2020/12/04 01:45:52;;;;;;;42.15;14.68;;;;;;;12.86;60.96;154494.22;1783171;80;21366;-66
2020/12/04 01:48:24;;;;;;;40.55;13.35;;;;;;;12.74;60.89;154462.70;1778290;80;21777;-66
2020/12/04 01:50:57;;;;;;;47.88;14.33;;;;;;;12.88;60.55;154500.83;1773486;81;21170;-67
2020/12/04 01:53:29;;;;;;;42.00;13.68;;;;;;;12.81;60.77;154481.13;1778007;81;21732;-67
2020/12/04 01:56:01;;;;;;;44.45;15.08;;;;;;;12.82;60.75;154483.75;1777929;81;21336;-66
2020/12/04 01:58:34;;;;;;;40.63;14.83;;;;;;;12.84;60.94;154489.02;1777986;81;21308;-66
2020/12/04 02:01:08;;;;;;;38.10;13.38;;;;;;;12.89;60.77;154502.17;1777549;81;21257;-66
2020/12/04 02:03:42;;;;;;;44.67;15.50;;;;;;;12.75;60.87;154466.67;1776630;81;21630;-66
2020/12/04 02:06:24;;;;;;;37.15;12.82;;;;;;;12.54;61.22;154408.91;1777788;81;21289;-63
2020/12/04 02:09:05;;;;;;;42.48;13.98;;;;;;;12.60;61.29;154427.27;1773615;79;21689;-66
2020/12/04 02:11:39;;;;;;;43.58;15.93;;;;;;;12.56;61.49;154415.44;1778433;81;21154;-66
2020/12/04 02:14:11;;;;;;;32.85;12.35;;;;;;;12.52;61.63;154404.92;1778134;81;21173;-66
2020/12/04 02:16:45;;;;;;;40.40;13.85;;;;;;;12.66;61.54;154443.05;1727448;81;21788;-66
2020/12/04 02:19:18;;;;;;;40.60;14.47;;;;;;;12.59;61.69;154423.34;1778170;81;21169;-66
2020/12/04 02:21:51;;;;;;;37.25;14.13;;;;;;;12.79;61.64;154477.16;1777917;81;21245;-66
2020/12/04 02:24:27;;;;;;;41.75;14.80;;;;;;;12.65;61.55;154440.42;1777216;81;21289;-66
2020/12/04 02:27:00;;;;;;;37.85;12.93;;;;;;;12.64;61.68;154436.44;1778191;81;21657;-67
2020/12/04 02:29:32;;;;;;;34.88;12.40;;;;;;;12.70;61.65;154453.52;1778359;81;21232;-66
2020/12/04 02:32:10;;;;;;;37.17;12.65;;;;;;;12.78;61.55;154473.23;1776028;81;21202;-66
2020/12/04 02:34:43;;;;;;;41.73;14.53;;;;;;;12.83;61.65;154486.39;1772960;81;21206;-66
2020/12/04 02:37:15;;;;;;;37.60;13.85;;;;;;;12.71;61.69;154454.86;1768917;81;21836;-65
2020/12/04 02:39:47;;;;;;;37.65;14.07;;;;;;;12.75;61.70;154465.34;1778524;81;21218;-66
2020/12/04 02:42:19;;;;;;;42.15;14.40;;;;;;;12.72;61.78;154457.48;1777750;81;21166;-65
2020/12/04 02:44:52;;;;;;;42.80;13.35;;;;;;;12.77;61.74;154470.59;1777862;81;21308;-66
2020/12/04 02:47:29;;;;;;;40.78;13.48;;;;;;;12.83;61.61;154486.39;1778227;80;21182;-65
2020/12/04 02:50:01;;;;;;;41.23;14.45;;;;;;;12.88;61.46;154500.83;1782217;80;21220;-65
2020/12/04 02:52:33;;;;;;;44.08;13.68;;;;;;;12.88;61.63;154500.83;1782494;80;21191;-66
2020/12/04 02:55:06;;;;;;;38.90;15.50;;;;;;;12.96;61.43;154521.87;1782554;80;21205;-66
2020/12/04 02:57:38;;;;;;;41.20;13.98;;;;;;;12.99;61.35;154528.44;1782173;80;21300;-66
2020/12/04 03:00:11;;;;;;;37.58;13.95;;;;;;;13.02;61.28;154537.63;1782513;80;21165;-66
2020/12/04 03:02:43;;;;;;;45.00;14.28;;;;;;;13.02;61.12;154536.34;1781813;80;21218;-66
2020/12/04 03:05:16;;;;;;;37.23;13.93;;;;;;;12.99;61.26;154529.78;1782363;80;21217;-66
2020/12/04 03:07:48;;;;;;;35.00;13.72;;;;;;;12.98;61.15;154527.16;1780350;80;21425;-66
2020/12/04 03:10:21;;;;;;;42.53;14.45;;;;;;;13.00;61.44;154532.41;1769631;81;21177;-65
2020/12/04 03:12:53;;;;;;;37.38;12.50;;;;;;;13.02;61.30;154536.34;1770053;81;21304;-65
2020/12/04 03:15:26;;;;;;;36.58;13.28;;;;;;;12.98;61.16;154525.81;1768561;81;21209;-65
2020/12/04 03:18:00;;;;;;;36.90;12.63;;;;;;;12.94;61.13;154516.62;1779735;80;21314;-66
2020/12/04 03:20:32;;;;;;;39.20;13.43;;;;;;;12.94;61.13;154516.62;1769640;81;21180;-65
2020/12/04 03:23:04;;;;;;;38.25;12.40;;;;;;;12.98;61.03;154525.81;1769672;79;21208;-65
2020/12/04 03:25:37;;;;;;;36.65;13.75;;;;;;;13.00;61.13;154532.41;1769714;81;21150;-65
2020/12/04 03:28:09;;;;;;;34.55;13.53;;;;;;;13.09;61.13;154556.05;1767984;81;21221;-65
2020/12/04 03:30:42;;;;;;;43.75;13.65;;;;;;;13.10;60.95;154557.34;1769888;81;21201;-64
2020/12/04 03:33:14;;;;;;;42.53;14.33;;;;;;;13.07;60.93;154549.50;1770128;81;21193;-65
2020/12/04 03:35:46;;;;;;;43.00;13.85;;;;;;;13.02;60.92;154537.63;1769512;81;21680;-65
2020/12/04 03:38:19;;;;;;;35.10;13.25;;;;;;;12.93;61.03;154513.98;1770072;81;21165;-65
2020/12/04 03:40:51;;;;;;;42.85;14.40;;;;;;;12.94;61.05;154516.62;1769648;81;21176;-65
2020/12/04 03:43:23;;;;;;;39.18;14.13;;;;;;;12.92;61.15;154511.36;1769599;81;21176;-65
2020/12/04 03:45:56;;;;;;;38.23;12.63;;;;;;;12.87;61.23;154498.20;1772421;80;21167;-65
2020/12/04 03:48:29;;;;;;;38.13;13.08;;;;;;;12.94;61.23;154515.33;1769432;81;21161;-65
2020/12/04 03:51:01;;;;;;;44.70;15.25;;;;;;;12.92;61.42;154510.06;1769198;81;21175;-65
2020/12/04 03:53:33;;;;;;;39.23;13.38;;;;;;;12.90;61.46;154504.81;1769608;81;21181;-66
2020/12/04 03:56:06;;;;;;;39.03;13.83;;;;;;;12.98;61.45;154525.81;1741209;81;21180;-66
2020/12/04 03:58:39;;;;;;;38.08;13.68;;;;;;;13.05;61.33;154544.22;1770147;81;21315;-65
2020/12/04 04:01:12;;;;;;;43.15;14.13;;;;;;;13.03;61.31;154540.25;1769951;81;21331;-65
2020/12/04 04:03:44;;;;;;;43.13;14.33;;;;;;;13.06;61.29;154546.86;1760728;81;21134;-66
2020/12/04 04:06:16;;;;;;;40.45;12.78;;;;;;;13.17;61.40;154575.75;1739643;82;21169;-66
2020/12/04 04:08:48;;;;;;;38.60;12.58;;;;;;;13.08;61.46;154552.08;1767918;81;21217;-66
2020/12/04 04:11:21;;;;;;;40.25;14.10;;;;;;;12.93;61.55;154512.70;1769602;81;21327;-65
2020/12/04 04:13:53;;;;;;;43.40;13.68;;;;;;;12.75;62.39;154465.34;1770264;81;21307;-66
2020/12/04 04:16:26;;;;;;;47.88;16.75;;;;;;;12.97;62.52;154523.17;1770180;81;21712;-65
2020/12/04 04:18:58;;;;;;;41.98;14.18;;;;;;;12.92;62.47;154510.06;1769645;81;21272;-65
2020/12/04 04:21:30;;;;;;;35.13;11.90;;;;;;;13.24;62.18;154594.12;1767386;81;21382;-65
2020/12/04 04:24:03;;;;;;;38.80;13.38;;;;;;;13.33;61.97;154619.13;1768894;81;21176;-65
2020/12/04 04:26:35;;;;;;;33.78;11.53;;;;;;;13.33;62.29;154617.78;1780357;80;21284;-65
2020/12/04 04:29:07;;;;;;;39.60;14.55;;;;;;;13.34;62.52;154620.41;1769614;81;21176;-65
2020/12/04 04:31:40;;;;;;;41.35;14.73;;;;;;;13.26;62.67;154600.69;1763019;81;21185;-65
2020/12/04 04:34:12;;;;;;;40.80;13.93;;;;;;;13.21;62.86;154586.23;1769901;81;21161;-65
2020/12/04 04:36:45;;;;;;;40.95;14.70;;;;;;;13.24;62.78;154594.12;1770086;81;21169;-65
2020/12/04 04:39:18;;;;;;;41.37;14.58;;;;;;;13.13;62.67;154565.23;1769629;81;21305;-65
2020/12/04 04:41:58;;;;;;;41.60;13.62;;;;;;;13.15;63.63;154570.50;1769541;81;21172;-65
2020/12/04 04:44:30;;;;;;;35.60;12.28;;;;;;;12.93;63.40;154512.70;1769829;81;21221;-65
2020/12/04 04:47:08;;;;;;;35.83;13.32;;;;;;;13.01;63.87;154535.05;1769884;80;21295;-66
2020/12/04 04:49:51;;;;;;;43.15;14.80;;;;;;;12.99;63.59;154529.78;1769560;81;21162;-65
2020/12/04 04:52:24;;;;;;;45.75;14.65;;;;;;;12.92;64.13;154510.06;1768886;81;21311;-65
2020/12/04 04:54:56;;;;;;;40.17;14.55;;;;;;;12.92;64.95;154510.06;1769951;81;21426;-66
2020/12/04 04:57:28;;;;;;;40.80;14.07;;;;;;;12.88;64.56;154500.83;1780616;80;21156;-66
2020/12/04 05:00:00;;;;;;;38.58;14.07;;;;;;;12.92;64.28;154510.06;1770033;81;21811;-65
2020/12/04 05:02:33;;;;;;;44.13;15.18;;;;;;;12.99;63.71;154528.44;1769366;81;21173;-65
2020/12/04 05:05:05;;;;;;;36.10;13.70;;;;;;;12.85;63.40;154491.59;1769954;81;21216;-65
2020/12/04 05:07:37;;;;;;;41.00;13.20;;;;;;;12.90;63.65;154504.81;1765661;81;21213;-65
2020/12/04 05:10:16;;;;;;;49.13;14.75;;;;;;;13.08;63.08;154552.08;1762817;79;21224;-65
2020/12/04 05:13:02;;;;;;;40.20;13.88;;;;;;;13.19;62.46;154581.03;1769801;81;21185;-65
2020/12/04 05:15:35;;;;;;;41.75;13.65;;;;;;;13.04;63.01;154541.59;1769906;81;21170;-65
2020/12/04 05:18:17;;;;;;;39.42;14.20;;;;;;;13.04;62.85;154542.89;1756313;81;21153;-65
2020/12/04 05:20:55;;;;;;;41.85;15.03;;;;;;;12.96;63.09;154520.59;1769782;81;21696;-65
2020/12/04 05:23:28;;;;;;;44.50;14.28;;;;;;;13.02;62.93;154536.34;1769976;81;21178;-63
2020/12/04 05:26:01;;;;;;;41.33;15.08;;;;;;;13.06;62.92;154546.86;1769446;81;21795;-63
2020/12/04 05:28:35;;;;;;;37.38;13.13;;;;;;;13.12;62.49;154563.94;1769739;81;21142;-63
2020/12/04 05:31:11;;;;;;;36.38;13.22;;;;;;;13.17;62.39;154575.75;1769874;81;21183;-63
2020/12/04 05:33:45;;;;;;;36.77;15.13;;;;;;;13.12;62.42;154562.59;1746864;81;21668;-64
2020/12/04 05:36:28;;;;;;;36.65;13.62;;;;;;;13.06;62.22;154546.86;1769560;81;21427;-65
2020/12/04 05:39:00;;;;;;;39.20;12.85;;;;;;;13.04;62.25;154541.59;1768890;81;21228;-68
2020/12/04 05:41:33;;;;;;;38.42;12.70;;;;;;;12.97;62.18;154524.52;1769598;81;21387;-67
2020/12/04 05:44:05;;;;;;;41.13;14.13;;;;;;;12.93;62.37;154512.70;1719958;81;21351;-67
2020/12/04 05:46:38;;;;;;;35.83;13.98;;;;;;;13.04;62.33;154541.59;1683845;81;21656;-66
2020/12/04 05:49:10;;;;;;;31.35;13.15;;;;;;;13.14;62.08;154567.86;1768112;81;21387;-68
2020/12/04 05:51:43;;;;;;;32.03;12.30;;;;;;;13.28;61.76;154605.95;1748051;81;21209;-68
2020/12/04 05:54:15;;;;;;;34.40;12.58;;;;;;;13.47;61.33;154654.58;1767075;81;21169;-68
2020/12/04 05:56:51;;;;;;;31.90;11.75;;;;;;;13.30;61.50;154609.94;1752836;81;21194;-69
2020/12/04 05:59:24;;;;;;;29.70;12.50;;;;;;;13.46;61.47;154653.28;1756509;81;21193;-69
2020/12/04 06:01:56;;;;;;;38.10;14.63;;;;;;;13.33;61.50;154619.13;1756920;81;21508;-69
2020/12/04 06:04:28;;;;;;;41.80;15.13;;;;;;;13.36;61.62;154625.67;1769419;81;21299;-68
2020/12/04 06:07:01;;;;;;;34.43;13.50;;;;;;;13.41;61.64;154640.13;1746802;81;21177;-68
2020/12/04 06:09:33;;;;;;;37.03;14.20;;;;;;;13.23;62.15;154591.50;1769816;81;21225;-68
2020/12/04 06:12:16;;;;;;;40.50;14.45;;;;;;;13.17;62.64;154577.05;1759234;81;21184;-68
2020/12/04 06:14:44;;;;;;;33.33;13.05;;;;;;;13.21;62.54;154586.23;1765057;81;21684;-68
2020/12/04 06:17:17;;;;;;;38.58;14.20;;;;;;;13.19;62.73;154581.03;1768398;81;21169;-68
2020/12/04 06:19:49;;;;;;;40.60;13.78;;;;;;;13.20;62.96;154584.94;1748027;81;21716;-68
2020/12/04 06:22:22;;;;;;;40.92;15.10;;;;;;;13.36;62.63;154625.67;1765048;80;21181;-68
2020/12/04 06:24:59;;;;;;;40.00;15.10;;;;;;;13.15;63.20;154571.78;1769845;81;21237;-68
2020/12/04 06:27:48;;;;;;;42.85;15.35;;;;;;;13.03;63.30;154540.25;1768341;81;21166;-68
2020/12/04 06:30:20;;;;;;;44.30;15.20;;;;;;;13.01;63.41;154535.05;1753785;81;21185;-68
2020/12/04 06:32:53;;;;;;;35.13;14.73;;;;;;;13.02;63.36;154537.63;1760209;81;21197;-68
2020/12/04 06:35:41;;;;;;;38.80;14.53;;;;;;;13.08;63.36;154553.41;1758682;81;21228;-68
2020/12/04 06:38:40;;;;;;;40.67;15.15;;;;;;;12.97;63.36;154523.17;1769082;81;21220;-71
2020/12/04 06:41:38;;;;;;;41.77;14.60;;;;;;;13.11;63.37;154559.97;1738981;81;21220;-68
2020/12/04 06:44:23;;;;;;;41.70;13.88;;;;;;;13.17;62.96;154575.75;1766516;81;21257;-68
2020/12/04 06:46:58;;;;;;;38.58;13.30;;;;;;;13.19;63.36;154582.31;1769625;81;21169;-68
2020/12/04 06:49:40;;;;;;;40.38;13.95;;;;;;;13.21;63.01;154587.58;1758667;81;21344;-67
2020/12/04 06:52:19;;;;;;;39.35;15.10;;;;;;;13.23;62.81;154591.50;1755134;80;21228;-63
2020/12/04 06:54:52;;;;;;;40.98;14.47;;;;;;;13.26;62.82;154600.69;1766963;81;21656;-63
2020/12/04 06:57:25;;;;;;;40.30;15.45;;;;;;;13.56;62.67;154680.86;1761372;81;21363;-63
2020/12/04 06:59:57;;;;;;;38.17;14.10;;;;;;;13.29;62.48;154607.30;1770054;81;21320;-64
2020/12/04 07:02:29;;;;;;;41.58;14.60;;;;;;;13.35;63.13;154623.03;1764393;81;21657;-63
2020/12/04 07:05:01;;;;;;;39.65;13.35;;;;;;;13.39;62.86;154633.56;1756403;81;21217;-63
2020/12/04 07:07:34;;;;;;;40.90;14.87;;;;;;;13.39;62.65;154634.86;1769321;81;21307;-63
2020/12/04 07:10:06;;;;;;;41.55;15.50;;;;;;;13.22;62.70;154588.87;1768830;81;21216;-63
2020/12/04 07:12:38;;;;;;;45.88;17.07;;;;;;;13.22;62.69;154590.22;1747127;81;21315;-62
2020/12/04 07:15:11;;;;;;;43.00;15.95;;;;;;;13.22;62.67;154590.22;1757150;81;21351;-63
2020/12/04 07:17:44;;;;;;;41.65;14.10;;;;;;;13.24;62.61;154595.47;1745630;81;21228;-63
2020/12/04 07:20:16;;;;;;;43.33;16.00;;;;;;;13.28;62.60;154604.67;1766506;81;21308;-64
2020/12/04 07:22:48;;;;;;;46.48;14.03;;;;;;;13.26;62.76;154600.69;1727108;80;21397;-63
2020/12/04 07:25:21;;;;;;;45.75;16.20;;;;;;;13.43;62.37;154644.05;1770069;81;21191;-63
2020/12/04 07:27:53;;;;;;;47.00;15.68;;;;;;;13.43;62.20;154644.05;1745832;82;21794;-63
2020/12/04 07:30:25;;;;;;;41.83;14.70;;;;;;;13.27;62.36;154603.31;1770052;81;21181;-63
2020/12/04 07:32:58;;;;;;;42.60;14.70;;;;;;;13.41;62.12;154640.13;1726079;82;21375;-63
2020/12/04 07:35:31;;;;;;;48.65;17.35;;;;;;;13.59;61.67;154688.75;1741346;81;21245;-63
2020/12/04 07:38:09;;;;;;;51.53;17.10;;;;;;;13.71;61.46;154720.31;1749131;82;21340;-63
2020/12/04 07:40:42;;;;;;;45.55;15.28;;;;;;;13.75;61.30;154730.84;1743756;82;21379;-68
2020/12/04 07:43:15;;;;;;;44.05;15.65;;;;;;;13.62;61.57;154696.66;1708148;81;21442;-73
2020/12/04 07:45:47;;;;;;;42.25;15.45;;;;;;;13.63;61.60;154697.95;1726236;81;21209;-64
2020/12/04 07:48:19;;;;;;;41.80;15.35;;;;;;;13.55;61.52;154676.94;1758089;81;21280;-66
2020/12/04 07:50:52;;;;;;;48.45;16.20;;;;;;;13.57;61.62;154682.20;1761022;80;21190;-68
2020/12/04 07:53:24;;;;;;;45.70;16.52;;;;;;;13.64;61.55;154700.58;1756012;81;21248;-68
2020/12/04 07:55:57;;;;;;;46.23;15.95;;;;;;;13.37;62.18;154628.31;1733935;80;21709;-68
2020/12/04 07:58:29;;;;;;;48.65;16.17;;;;;;;13.41;62.16;154640.13;1731227;81;21372;-68
2020/12/04 08:01:01;;;;;;;40.35;15.30;;;;;;;13.65;62.04;154704.56;1738637;81;21335;-69
2020/12/04 08:03:34;;;;;;;50.45;16.70;;;;;;;13.59;62.15;154687.47;1742741;81;21371;-67
2020/12/04 08:06:10;;;;;;;44.70;16.20;;;;;;;13.71;62.16;154719.02;1733240;80;21233;-67
2020/12/04 08:08:43;;;;;;;43.48;15.80;;;;;;;14.02;61.52;154800.52;1735955;81;21296;-68
2020/12/04 08:11:15;;;;;;;50.15;16.77;;;;;;;14.10;61.22;154822.87;1735191;81;21312;-64
2020/12/04 08:13:48;;;;;;;47.60;16.42;;;;;;;14.22;61.08;154853.16;1732530;81;21374;-69
2020/12/04 08:16:21;;;;;;;49.25;17.42;;;;;;;14.07;60.94;154814.97;1730282;81;21403;-69
2020/12/04 08:18:53;;;;;;;51.45;16.65;;;;;;;14.03;60.97;154803.14;1733613;81;21282;-68
2020/12/04 08:21:26;;;;;;;52.88;18.15;;;;;;;13.97;61.00;154788.69;1732435;81;21653;-68
2020/12/04 08:23:58;;;;;;;55.43;17.80;;;;;;;13.98;60.83;154789.97;1734899;81;21188;-72
2020/12/04 08:26:31;;;;;;;46.33;16.45;;;;;;;13.95;60.87;154782.06;1731859;81;21217;-69
2020/12/04 08:29:05;;;;;;;54.30;16.05;;;;;;;13.83;61.12;154751.86;1733940;80;21502;-71
2020/12/04 08:31:37;;;;;;;54.08;19.50;;;;;;;13.83;61.17;154750.56;1735506;81;21249;-69
2020/12/04 08:34:12;;;;;;;45.38;18.35;;;;;;;13.71;61.21;154720.31;1730233;81;21827;-69
2020/12/04 08:36:44;;;;;;;52.23;17.75;;;;;;;13.57;61.85;154682.20;1685691;81;21245;-69
2020/12/04 08:39:17;;;;;;;47.48;16.32;;;;;;;13.55;61.98;154678.22;1741162;81;21221;-69
2020/12/04 08:41:52;;;;;;;46.30;15.20;;;;;;;13.59;62.05;154688.75;1733709;81;21256;-67
2020/12/04 08:44:27;;;;;;;52.38;18.12;;;;;;;13.83;61.75;154750.56;1732939;80;21253;-67
2020/12/04 08:46:59;;;;;;;49.75;17.57;;;;;;;13.87;61.60;154762.39;1735427;80;22399;-70
2020/12/04 08:49:32;;;;;;;41.95;15.90;;;;;;;13.87;61.61;154762.39;1737958;81;21216;-66
2020/12/04 08:52:05;;;;;;;51.98;18.30;;;;;;;13.87;61.58;154762.39;1734722;80;21576;-66
2020/12/04 08:54:37;;;;;;;49.25;16.37;;;;;;;13.93;61.66;154778.16;1738316;80;21240;-64
2020/12/04 08:57:10;;;;;;;50.43;17.17;;;;;;;14.28;61.08;154870.25;1730961;81;21858;-68
2020/12/04 08:59:43;;;;;;;51.88;16.70;;;;;;;14.13;60.92;154829.48;1734397;81;21743;-69
2020/12/04 09:02:16;;;;;;;53.60;16.07;;;;;;;13.89;61.48;154767.61;1739429;81;21212;-69
2020/12/04 09:04:49;;;;;;;44.55;16.77;;;;;;;13.84;61.75;154754.48;1745327;81;21188;-70
2020/12/04 09:07:21;;;;;;;42.10;15.35;;;;;;;13.83;61.79;154751.86;1744958;81;21225;-70
2020/12/04 09:09:54;;;;;;;47.93;16.93;;;;;;;14.01;61.47;154799.16;1739801;81;21209;-69
2020/12/04 09:12:26;;;;;;;46.37;14.75;;;;;;;14.00;61.44;154796.59;1735483;81;21169;-71
2020/12/04 09:14:59;;;;;;;45.88;16.12;;;;;;;13.93;61.52;154778.16;1744201;81;21443;-69
2020/12/04 09:17:31;;;;;;;39.27;14.05;;;;;;;13.94;61.58;154779.48;1736137;81;21324;-67
2020/12/04 09:20:05;;;;;;;41.80;14.78;;;;;;;13.88;61.62;154763.69;1742434;81;21181;-70
2020/12/04 09:22:38;;;;;;;37.25;13.22;;;;;;;13.76;61.53;154732.13;1733438;81;21228;-69
2020/12/04 09:25:14;;;;;;;39.05;14.60;;;;;;;13.99;61.32;154793.95;1742688;81;21205;-69
2020/12/04 09:27:46;;;;;;;37.23;14.35;;;;;;;14.08;60.94;154816.27;1732013;81;21158;-69
2020/12/04 09:30:20;;;;;;;31.90;12.63;;;;;;;14.01;61.20;154799.16;1734523;81;21245;-69
2020/12/04 09:32:52;;;;;;;37.70;13.83;;;;;;;14.00;61.01;154795.23;1736624;81;21237;-70
2020/12/04 09:35:25;;;;;;;33.30;13.30;;;;;;;13.95;61.13;154782.06;1734413;81;21236;-70
2020/12/04 09:37:57;;;;;;;38.78;13.80;;;;;;;14.08;60.88;154817.61;1733097;81;21267;-69
2020/12/04 09:40:30;;;;;;;32.63;13.60;;;;;;;14.06;60.70;154812.34;1735491;81;21180;-63
2020/12/04 09:43:06;;;;;;;41.20;16.00;;;;;;;14.09;60.86;154820.23;1738785;81;21728;-65
2020/12/04 09:45:39;;;;;;;38.75;14.70;;;;;;;14.09;60.89;154820.23;1733988;81;21244;-67
2020/12/04 09:48:11;;;;;;;39.13;15.85;;;;;;;14.28;60.75;154868.95;1736957;81;21248;-69
2020/12/04 09:50:45;;;;;;;43.45;14.55;;;;;;;14.39;60.62;154897.89;1734924;81;21224;-69
2020/12/04 09:53:17;;;;;;;40.05;13.85;;;;;;;14.43;60.39;154908.38;1732512;81;21718;-69
2020/12/04 09:55:50;;;;;;;38.50;15.43;;;;;;;14.51;60.45;154932.09;1734012;81;21277;-69
2020/12/04 09:58:24;;;;;;;41.60;15.35;;;;;;;14.61;60.31;154957.05;1740797;81;21232;-70
2020/12/04 10:00:56;;;;;;;49.18;15.80;;;;;;;14.53;60.56;154936.02;1732516;81;21193;-64
2020/12/04 10:03:30;;;;;;;49.83;16.48;;;;;;;14.61;60.54;154957.05;1739988;81;21723;-64
2020/12/04 10:06:04;;;;;;;57.98;18.12;;;;;;;14.63;60.45;154962.31;1733838;81;21300;-65
2020/12/04 10:08:37;;;;;;;57.70;19.12;;;;;;;14.56;60.35;154945.22;1736824;81;21459;-65
2020/12/04 10:11:10;;;;;;;56.35;18.48;;;;;;;14.54;60.28;154938.66;1732977;81;21236;-70
2020/12/04 10:13:43;;;;;;;61.33;18.82;;;;;;;14.53;60.29;154936.02;1741854;81;21177;-69
2020/12/04 10:16:16;;;;;;;63.70;18.15;;;;;;;14.16;60.85;154838.69;1732656;81;21189;-64
2020/12/04 10:18:49;;;;;;;48.48;17.42;;;;;;;13.95;61.45;154783.41;1733793;81;21711;-68
2020/12/04 10:21:27;;;;;;;59.30;17.75;;;;;;;14.09;61.17;154818.91;1741998;81;21165;-66
2020/12/04 10:24:00;;;;;;;61.33;18.87;;;;;;;14.08;60.96;154817.61;1732881;81;21205;-67
2020/12/04 10:26:32;;;;;;;50.67;17.57;;;;;;;14.02;61.25;154800.52;1733050;81;21616;-67
2020/12/04 10:29:08;;;;;;;52.58;19.07;;;;;;;14.18;61.15;154843.95;1731385;81;21847;-67
2020/12/04 10:31:40;;;;;;;56.10;18.40;;;;;;;14.37;60.92;154892.62;1730589;80;21224;-68
2020/12/04 10:34:15;;;;;;;51.95;18.20;;;;;;;14.17;60.99;154841.31;1730327;81;21226;-69
2020/12/04 10:36:47;;;;;;;53.40;17.90;;;;;;;14.67;60.20;154974.16;1732548;81;21661;-66
2020/12/04 10:39:20;;;;;;;56.77;19.23;;;;;;;14.81;59.86;155009.72;1733114;81;21182;-64
2020/12/04 10:41:52;;;;;;;53.78;20.00;;;;;;;14.89;59.73;155030.75;1734469;81;21158;-65
2020/12/04 10:44:25;;;;;;;60.28;20.72;;;;;;;14.82;59.81;155012.31;1734394;81;21272;-65
2020/12/04 10:47:02;;;;;;;53.28;18.15;;;;;;;14.89;59.48;155030.75;1734751;81;21248;-64
2020/12/04 10:49:34;;;;;;;54.93;19.55;;;;;;;14.84;59.36;155017.58;1737384;81;22096;-63
2020/12/04 10:52:06;;;;;;;48.55;19.65;;;;;;;14.83;59.40;155016.28;1734088;81;21233;-63
2020/12/04 10:54:40;;;;;;;55.15;19.42;;;;;;;14.86;59.61;155024.19;1730886;81;21779;-63
2020/12/04 10:57:12;;;;;;;61.02;19.90;;;;;;;14.61;59.83;154957.05;1731127;81;21257;-63
2020/12/04 10:59:45;;;;;;;53.83;19.70;;;;;;;14.34;60.19;154886.06;1731200;81;21232;-64
2020/12/04 11:02:31;;;;;;;49.98;18.90;;;;;;;14.40;60.30;154901.81;1731870;81;21182;-63
2020/12/04 11:07:45;;;;;;;52.23;18.87;;;;;;;14.31;60.45;154876.81;1733774;81;21231;-64
2020/12/04 11:10:17;;;;;;;50.05;19.20;;;;;;;14.64;59.88;154966.25;1733374;81;21241;-64
2020/12/04 11:12:50;;;;;;;49.88;19.45;;;;;;;14.67;59.92;154972.88;1742574;80;21229;-63
2020/12/04 11:15:22;;;;;;;49.45;19.92;;;;;;;14.63;59.67;154963.67;1732431;81;21188;-64
2020/12/04 11:17:55;;;;;;;50.35;18.67;;;;;;;14.54;60.22;154939.94;1731325;81;21193;-64
2020/12/04 11:20:27;;;;;;;44.85;19.35;;;;;;;14.52;61.20;154933.39;1731161;81;21225;-64
2020/12/04 11:23:00;;;;;;;45.33;19.95;;;;;;;14.55;61.52;154942.59;1731406;81;21232;-63
2020/12/04 11:25:33;;;;;;;40.50;17.95;;;;;;;14.64;61.27;154966.25;1756481;80;21191;-63
2020/12/04 11:28:05;;;;;;;45.23;19.20;;;;;;;14.64;61.21;154964.97;1746602;81;21291;-64
2020/12/04 11:30:39;;;;;;;44.88;18.00;;;;;;;14.57;61.47;154947.86;1759880;79;21281;-63
2020/12/04 11:33:11;;;;;;;51.85;19.00;;;;;;;14.48;62.19;154922.84;1761062;80;21207;-62
2020/12/04 11:35:43;;;;;;;46.60;19.20;;;;;;;14.44;61.73;154912.36;1757577;79;21184;-64
2020/12/04 11:38:16;;;;;;;41.55;16.85;;;;;;;14.24;61.10;154858.41;1762523;79;21238;-63
2020/12/04 11:40:48;;;;;;;41.80;16.87;;;;;;;14.16;62.02;154837.39;1757448;80;21171;-64